createdAt,value
2023-06-27T00:00:14.206Z,94957.00
2023-06-27T00:01:14.125Z,94957.00
2023-06-27T00:02:14.264Z,94957.00
2023-06-27T00:03:14.243Z,94955.00
2023-06-27T00:04:14.122Z,94957.00
2023-06-27T00:05:14.118Z,94955.00
2023-06-27T00:06:14.060Z,94955.00
2023-06-27T00:07:14.250Z,94955.00
2023-06-27T00:08:14.094Z,94957.00
2023-06-27T00:09:14.133Z,94955.00
2023-06-27T00:10:14.190Z,94955.00
2023-06-27T00:11:14.198Z,94957.00
2023-06-27T00:12:14.248Z,94955.00
2023-06-27T00:13:14.295Z,94955.00
2023-06-27T00:14:14.376Z,94955.00
2023-06-27T00:15:14.391Z,94957.00
2023-06-27T00:16:14.454Z,94955.00
2023-06-27T00:17:14.495Z,94959.00
2023-06-27T00:18:14.553Z,94962.00
2023-06-27T00:19:14.578Z,94964.00
2023-06-27T00:20:14.628Z,94968.00
2023-06-27T00:21:14.671Z,94970.00
2023-06-27T00:22:14.723Z,94964.00
2023-06-27T00:23:14.794Z,94964.00
2023-06-27T00:24:14.852Z,94966.00
2023-06-27T00:25:14.907Z,94964.00
2023-06-27T00:26:14.925Z,94966.00
2023-06-27T00:27:14.976Z,94970.00
2023-06-27T00:28:15.030Z,94968.00
2023-06-27T00:29:15.149Z,94974.00
2023-06-27T00:30:15.108Z,94970.00
2023-06-27T00:31:15.181Z,94974.00
2023-06-27T00:32:15.263Z,94974.00
2023-06-27T00:33:15.238Z,94974.00
2023-06-27T00:34:15.280Z,94974.00
2023-06-27T00:35:15.334Z,94978.00
2023-06-27T00:36:15.385Z,94976.00
2023-06-27T00:37:15.461Z,94978.00
2023-06-27T00:38:15.452Z,94978.00
2023-06-27T00:39:15.526Z,94978.00
2023-06-27T00:40:15.585Z,94980.00
2023-06-27T00:41:15.606Z,94980.00
2023-06-27T00:42:15.689Z,94984.00
2023-06-27T00:43:15.689Z,94984.00
2023-06-27T00:44:15.761Z,94984.00
2023-06-27T00:45:15.815Z,94986.00
2023-06-27T00:46:15.864Z,94984.00
2023-06-27T00:47:15.925Z,94988.00
2023-06-27T00:48:15.986Z,94986.00
2023-06-27T00:49:16.056Z,94986.00
2023-06-27T00:50:16.053Z,94986.00
2023-06-27T00:51:16.097Z,94986.00
2023-06-27T00:52:16.197Z,94986.00
2023-06-27T00:53:16.242Z,94986.00
2023-06-27T00:54:16.287Z,94986.00
2023-06-27T00:55:16.343Z,94986.00
2023-06-27T00:56:16.343Z,94988.00
2023-06-27T00:57:16.390Z,94988.00
2023-06-27T00:58:16.524Z,94986.00
2023-06-27T00:59:16.528Z,94986.00
2023-06-27T01:00:16.583Z,94986.00
2023-06-27T01:01:16.637Z,94982.00
2023-06-27T01:02:16.707Z,94982.00
2023-06-27T01:03:16.826Z,94982.00
2023-06-27T01:04:16.740Z,94982.00
2023-06-27T01:05:16.825Z,94982.00
2023-06-27T01:06:16.872Z,94982.00
2023-06-27T01:07:17.014Z,94980.00
2023-06-27T01:08:17.096Z,94978.00
2023-06-27T01:09:17.071Z,94978.00
2023-06-27T01:10:17.124Z,94978.00
2023-06-27T01:11:17.175Z,94978.00
2023-06-27T01:12:17.207Z,94978.00
2023-06-27T01:13:17.280Z,94980.00
2023-06-27T01:14:17.357Z,94978.00
2023-06-27T01:15:17.386Z,94978.00
2023-06-27T01:16:17.458Z,94980.00
2023-06-27T01:17:17.772Z,94980.00
2023-06-27T01:18:17.553Z,94980.00
2023-06-27T01:19:17.630Z,94978.00
2023-06-27T01:20:17.703Z,94980.00
2023-06-27T01:21:17.784Z,94976.00
2023-06-27T01:22:17.787Z,94980.00
2023-06-27T01:23:17.837Z,94976.00
2023-06-27T01:24:17.875Z,94974.00
2023-06-27T01:25:17.929Z,94976.00
2023-06-27T01:26:17.983Z,94976.00
2023-06-27T01:27:18.042Z,94976.00
2023-06-27T01:28:18.112Z,94976.00
2023-06-27T01:29:18.167Z,94978.00
2023-06-27T01:30:18.218Z,94978.00
2023-06-27T01:31:18.306Z,94978.00
2023-06-27T01:32:18.334Z,94976.00
2023-06-27T01:33:18.365Z,94976.00
2023-06-27T01:34:18.464Z,94974.00
2023-06-27T01:35:18.528Z,94978.00
2023-06-27T01:36:18.579Z,94972.00
2023-06-27T01:37:18.640Z,94970.00
2023-06-27T01:38:18.701Z,94970.00
2023-06-27T01:39:18.726Z,94970.00
2023-06-27T01:40:18.805Z,94972.00
2023-06-27T01:41:18.890Z,94970.00
2023-06-27T01:42:18.903Z,94970.00
2023-06-27T01:43:18.962Z,94972.00
2023-06-27T01:44:19.055Z,94972.00
2023-06-27T01:45:19.104Z,94972.00
2023-06-27T01:46:19.168Z,94972.00
2023-06-27T01:47:19.243Z,94972.00
2023-06-27T01:48:19.274Z,94972.00
2023-06-27T01:49:19.306Z,94970.00
2023-06-27T01:50:19.361Z,94968.00
2023-06-27T01:51:19.426Z,94970.00
2023-06-27T01:52:19.501Z,94970.00
2023-06-27T01:53:19.567Z,94972.00
2023-06-27T01:54:19.601Z,94974.00
2023-06-27T01:55:19.704Z,94972.00
2023-06-27T01:56:19.705Z,94970.00
2023-06-27T01:57:19.809Z,94972.00
2023-06-27T01:58:19.805Z,94970.00
2023-06-27T01:59:19.886Z,94968.00
2023-06-27T02:00:19.968Z,94968.00
2023-06-27T02:01:19.981Z,94968.00
2023-06-27T02:02:20.117Z,94966.00
2023-06-27T02:03:20.156Z,94962.00
2023-06-27T02:04:20.393Z,94961.00
2023-06-27T02:05:20.248Z,94962.00
2023-06-27T02:06:20.267Z,94964.00
2023-06-27T02:07:20.393Z,94962.00
2023-06-27T02:08:20.393Z,94962.00
2023-06-27T02:09:20.418Z,94964.00
2023-06-27T02:10:20.527Z,94961.00
2023-06-27T02:11:20.581Z,94966.00
2023-06-27T02:12:20.664Z,94968.00
2023-06-27T02:13:20.697Z,94966.00
2023-06-27T02:14:20.760Z,94970.00
2023-06-27T02:15:20.797Z,94972.00
2023-06-27T02:16:20.870Z,94970.00
2023-06-27T02:17:21.006Z,94970.00
2023-06-27T02:18:21.055Z,94974.00
2023-06-27T02:19:21.069Z,94974.00
2023-06-27T02:20:21.112Z,94972.00
2023-06-27T02:21:21.160Z,94974.00
2023-06-27T02:22:21.215Z,94974.00
2023-06-27T02:23:21.274Z,94974.00
2023-06-27T02:24:21.339Z,94976.00
2023-06-27T02:25:21.388Z,94976.00
2023-06-27T02:26:21.528Z,94974.00
2023-06-27T02:27:21.511Z,94978.00
2023-06-27T02:28:21.574Z,94972.00
2023-06-27T02:29:21.618Z,94972.00
2023-06-27T02:30:21.682Z,94970.00
2023-06-27T02:31:21.848Z,94972.00
2023-06-27T02:32:21.860Z,94972.00
2023-06-27T02:33:21.866Z,94972.00
2023-06-27T02:34:21.923Z,94974.00
2023-06-27T02:35:21.970Z,94976.00
2023-06-27T02:36:22.039Z,94972.00
2023-06-27T02:37:22.150Z,94972.00
2023-06-27T02:38:22.206Z,94970.00
2023-06-27T02:39:22.248Z,94972.00
2023-06-27T02:40:22.269Z,94974.00
2023-06-27T02:41:22.425Z,94970.00
2023-06-27T02:42:22.425Z,94968.00
2023-06-27T02:43:22.484Z,94970.00
2023-06-27T02:44:22.524Z,94972.00
2023-06-27T02:45:22.617Z,94968.00
2023-06-27T02:46:22.702Z,94970.00
2023-06-27T02:47:22.864Z,94970.00
2023-06-27T02:48:22.779Z,94974.00
2023-06-27T02:49:22.828Z,94978.00
2023-06-27T02:50:22.897Z,94978.00
2023-06-27T02:51:22.963Z,94976.00
2023-06-27T02:52:23.002Z,94976.00
2023-06-27T02:53:23.076Z,94976.00
2023-06-27T02:54:23.117Z,94976.00
2023-06-27T02:55:23.181Z,94978.00
2023-06-27T02:56:23.243Z,94978.00
2023-06-27T02:57:23.296Z,94982.00
2023-06-27T02:58:23.348Z,94982.00
2023-06-27T02:59:23.419Z,94984.00
2023-06-27T03:00:23.476Z,94984.00
2023-06-27T03:01:23.603Z,94984.00
2023-06-27T03:02:23.626Z,94982.00
2023-06-27T03:03:23.774Z,94986.00
2023-06-27T03:04:23.798Z,94986.00
2023-06-27T03:05:23.787Z,94988.00
2023-06-27T03:06:23.869Z,94986.00
2023-06-27T03:07:23.892Z,94992.00
2023-06-27T03:08:23.989Z,94994.00
2023-06-27T03:09:24.051Z,94994.00
2023-06-27T03:10:24.099Z,94996.00
2023-06-27T03:11:24.145Z,94998.00
2023-06-27T03:12:24.216Z,95000.00
2023-06-27T03:13:24.280Z,94996.00
2023-06-27T03:14:24.348Z,94998.00
2023-06-27T03:15:24.395Z,95000.00
2023-06-27T03:16:24.467Z,95002.00
2023-06-27T03:17:24.574Z,95002.00
2023-06-27T03:18:24.568Z,95002.00
2023-06-27T03:19:34.569Z,95000.00
2023-06-27T03:20:25.663Z,94998.00
2023-06-27T03:21:24.628Z,94996.00
2023-06-27T03:22:24.635Z,94994.00
2023-06-27T03:23:24.612Z,94992.00
2023-06-27T03:24:24.611Z,94992.00
2023-06-27T03:25:24.617Z,94990.00
2023-06-27T03:26:24.575Z,94990.00
2023-06-27T03:27:24.627Z,94992.00
2023-06-27T03:28:24.733Z,94992.00
2023-06-27T03:29:24.793Z,94990.00
2023-06-27T03:30:24.853Z,94990.00
2023-06-27T03:31:24.948Z,94988.00
2023-06-27T03:32:25.005Z,94988.00
2023-06-27T03:33:25.016Z,94990.00
2023-06-27T03:34:25.132Z,94990.00
2023-06-27T03:35:25.150Z,94990.00
2023-06-27T03:36:25.244Z,94992.00
2023-06-27T03:37:25.314Z,94992.00
2023-06-27T03:38:25.351Z,94994.00
2023-06-27T03:39:25.385Z,94994.00
2023-06-27T03:40:25.484Z,94994.00
2023-06-27T03:41:25.542Z,94994.00
2023-06-27T03:42:25.593Z,94992.00
2023-06-27T03:43:25.665Z,94990.00
2023-06-27T03:44:25.778Z,94992.00
2023-06-27T03:45:25.778Z,94988.00
2023-06-27T03:46:25.833Z,94990.00
2023-06-27T03:47:25.937Z,94988.00
2023-06-27T03:48:25.952Z,94992.00
2023-06-27T03:49:26.049Z,94988.00
2023-06-27T03:50:26.118Z,94990.00
2023-06-27T03:51:26.157Z,94992.00
2023-06-27T03:52:26.231Z,94992.00
2023-06-27T03:53:26.289Z,94994.00
2023-06-27T03:54:26.350Z,94994.00
2023-06-27T03:55:26.402Z,94996.00
2023-06-27T03:56:26.466Z,94998.00
2023-06-27T03:57:26.656Z,95002.00
2023-06-27T03:58:26.677Z,95004.00
2023-06-27T03:59:26.626Z,95008.00
2023-06-27T04:00:26.706Z,95008.00
2023-06-27T04:01:26.752Z,95008.00
2023-06-27T04:02:26.879Z,95010.00
2023-06-27T04:03:26.913Z,95010.00
2023-06-27T04:04:27.064Z,95008.00
2023-06-27T04:05:26.993Z,95010.00
2023-06-27T04:06:27.055Z,95010.00
2023-06-27T04:07:27.289Z,95012.00
2023-06-27T04:08:27.168Z,95013.00
2023-06-27T04:09:27.210Z,95015.00
2023-06-27T04:10:27.318Z,95015.00
2023-06-27T04:11:27.395Z,95017.00
2023-06-27T04:12:27.452Z,95017.00
2023-06-27T04:13:27.568Z,95021.00
2023-06-27T04:14:28.034Z,95017.00
2023-06-27T04:15:27.660Z,95017.00
2023-06-27T04:16:27.729Z,95019.00
2023-06-27T04:17:27.970Z,95017.00
2023-06-27T04:18:27.848Z,95019.00
2023-06-27T04:19:27.855Z,95021.00
2023-06-27T04:20:27.897Z,95019.00
2023-06-27T04:21:27.979Z,95019.00
2023-06-27T04:22:27.984Z,95017.00
2023-06-27T04:23:27.987Z,95021.00
2023-06-27T04:24:28.041Z,95017.00
2023-06-27T04:25:28.101Z,95023.00
2023-06-27T04:26:28.100Z,95019.00
2023-06-27T04:27:28.148Z,95023.00
2023-06-27T04:28:28.216Z,95027.00
2023-06-27T04:29:28.292Z,95027.00
2023-06-27T04:30:28.277Z,95031.00
2023-06-27T04:31:28.368Z,95033.00
2023-06-27T04:32:28.482Z,95033.00
2023-06-27T04:33:28.415Z,95031.00
2023-06-27T04:34:28.469Z,95033.00
2023-06-27T04:35:28.513Z,95033.00
2023-06-27T04:36:28.604Z,95031.00
2023-06-27T04:37:28.626Z,95033.00
2023-06-27T04:38:28.708Z,95031.00
2023-06-27T04:39:28.776Z,95029.00
2023-06-27T04:40:28.819Z,95033.00
2023-06-27T04:41:28.862Z,95031.00
2023-06-27T04:42:28.947Z,95033.00
2023-06-27T04:43:28.939Z,95033.00
2023-06-27T04:44:28.988Z,95033.00
2023-06-27T04:45:29.055Z,95033.00
2023-06-27T04:46:29.106Z,95035.00
2023-06-27T04:47:29.220Z,95039.00
2023-06-27T04:48:29.211Z,95039.00
2023-06-27T04:49:29.297Z,95041.00
2023-06-27T04:50:29.297Z,95041.00
2023-06-27T04:51:29.397Z,95043.00
2023-06-27T04:52:29.446Z,95045.00
2023-06-27T04:53:29.466Z,95043.00
2023-06-27T04:54:29.596Z,95043.00
2023-06-27T04:55:29.592Z,95039.00
2023-06-27T04:56:29.651Z,95041.00
2023-06-27T04:57:29.687Z,95041.00
2023-06-27T04:58:29.750Z,95041.00
2023-06-27T04:59:29.847Z,95045.00
2023-06-27T05:00:29.890Z,95045.00
2023-06-27T05:01:29.972Z,95047.00
2023-06-27T05:02:30.049Z,95051.00
2023-06-27T05:03:30.046Z,95051.00
2023-06-27T05:04:30.126Z,95049.00
2023-06-27T05:05:30.156Z,95047.00
2023-06-27T05:06:30.212Z,95045.00
2023-06-27T05:07:30.371Z,95045.00
2023-06-27T05:08:30.337Z,95049.00
2023-06-27T05:09:30.372Z,95051.00
2023-06-27T05:10:30.416Z,95049.00
2023-06-27T05:11:30.490Z,95049.00
2023-06-27T05:12:30.603Z,95055.00
2023-06-27T05:13:30.627Z,95055.00
2023-06-27T05:14:30.691Z,95059.00
2023-06-27T05:15:30.755Z,95057.00
2023-06-27T05:16:30.766Z,95059.00
2023-06-27T05:17:30.851Z,95059.00
2023-06-27T05:18:30.927Z,95059.00
2023-06-27T05:19:30.952Z,95061.00
2023-06-27T05:20:30.963Z,95061.00
2023-06-27T05:21:31.476Z,95059.00
2023-06-27T05:22:31.085Z,95063.00
2023-06-27T05:23:31.110Z,95063.00
2023-06-27T05:24:31.191Z,95059.00
2023-06-27T05:25:31.206Z,95064.00
2023-06-27T05:26:31.280Z,95068.00
2023-06-27T05:27:31.350Z,95066.00
2023-06-27T05:28:31.328Z,95070.00
2023-06-27T05:29:31.398Z,95072.00
2023-06-27T05:30:31.483Z,95074.00
2023-06-27T05:31:31.444Z,95074.00
2023-06-27T05:32:31.540Z,95076.00
2023-06-27T05:33:31.609Z,95074.00
2023-06-27T05:34:31.647Z,95072.00
2023-06-27T05:35:31.646Z,95072.00
2023-06-27T05:36:31.624Z,95072.00
2023-06-27T05:37:31.671Z,95072.00
2023-06-27T05:38:31.591Z,95074.00
2023-06-27T05:39:31.694Z,95076.00
2023-06-27T05:40:31.793Z,95078.00
2023-06-27T05:41:31.788Z,95078.00
2023-06-27T05:42:31.754Z,95080.00
2023-06-27T05:43:31.831Z,95084.00
2023-06-27T05:44:31.922Z,95086.00
2023-06-27T05:45:31.921Z,95092.00
2023-06-27T05:46:31.962Z,95092.00
2023-06-27T05:47:32.088Z,95088.00
2023-06-27T05:48:32.102Z,95094.00
2023-06-27T05:49:32.212Z,95094.00
2023-06-27T05:50:32.167Z,95092.00
2023-06-27T05:51:32.230Z,95092.00
2023-06-27T05:52:32.276Z,95092.00
2023-06-27T05:53:32.290Z,95092.00
2023-06-27T05:54:32.308Z,95090.00
2023-06-27T05:55:32.362Z,95092.00
2023-06-27T05:56:32.416Z,95086.00
2023-06-27T05:57:32.361Z,95082.00
2023-06-27T05:58:32.422Z,95088.00
2023-06-27T05:59:32.428Z,95084.00
2023-06-27T06:00:32.421Z,95084.00
2023-06-27T06:01:32.559Z,95084.00
2023-06-27T06:02:32.782Z,95082.00
2023-06-27T06:03:32.747Z,95080.00
2023-06-27T06:04:32.813Z,95086.00
2023-06-27T06:05:32.877Z,95084.00
2023-06-27T06:06:32.988Z,95088.00
2023-06-27T06:07:33.127Z,95090.00
2023-06-27T06:08:33.145Z,95096.00
2023-06-27T06:09:33.207Z,95100.00
2023-06-27T06:10:33.257Z,95102.00
2023-06-27T06:11:33.321Z,95102.00
2023-06-27T06:12:33.441Z,95102.00
2023-06-27T06:13:33.476Z,95102.00
2023-06-27T06:14:33.490Z,95100.00
2023-06-27T06:15:33.617Z,95102.00
2023-06-27T06:16:33.622Z,95104.00
2023-06-27T06:17:33.698Z,95102.00
2023-06-27T06:18:33.852Z,95100.00
2023-06-27T06:19:33.809Z,95104.00
2023-06-27T06:20:33.914Z,95106.00
2023-06-27T06:21:33.937Z,95106.00
2023-06-27T06:22:33.967Z,95108.00
2023-06-27T06:23:34.000Z,95112.00
2023-06-27T06:24:34.293Z,95108.00
2023-06-27T06:25:34.149Z,95112.00
2023-06-27T06:26:34.182Z,95112.00
2023-06-27T06:27:34.231Z,95110.00
2023-06-27T06:28:34.298Z,95114.00
2023-06-27T06:29:34.381Z,95112.00
2023-06-27T06:30:34.375Z,95112.00
2023-06-27T06:31:34.436Z,95115.00
2023-06-27T06:32:35.951Z,95114.00
2023-06-27T06:33:34.524Z,95121.00
2023-06-27T06:34:34.607Z,95117.00
2023-06-27T06:35:34.608Z,95115.00
2023-06-27T06:36:34.657Z,95114.00
2023-06-27T06:37:34.779Z,95117.00
2023-06-27T06:38:34.803Z,95117.00
2023-06-27T06:39:34.837Z,95119.00
2023-06-27T06:40:34.832Z,95121.00
2023-06-27T06:41:34.865Z,95119.00
2023-06-27T06:42:34.892Z,95114.00
2023-06-27T06:43:34.923Z,95115.00
2023-06-27T06:44:35.008Z,95119.00
2023-06-27T06:45:35.041Z,95119.00
2023-06-27T06:46:35.175Z,95117.00
2023-06-27T06:47:35.084Z,95121.00
2023-06-27T06:48:35.149Z,95117.00
2023-06-27T06:49:35.185Z,95121.00
2023-06-27T06:50:35.224Z,95125.00
2023-06-27T06:51:35.195Z,95123.00
2023-06-27T06:52:35.259Z,95125.00
2023-06-27T06:53:35.263Z,95125.00
2023-06-27T06:54:35.292Z,95133.00
2023-06-27T06:55:35.315Z,95133.00
2023-06-27T06:56:35.396Z,95133.00
2023-06-27T06:57:35.472Z,95125.00
2023-06-27T06:58:35.436Z,95133.00
2023-06-27T06:59:35.487Z,95133.00
2023-06-27T07:00:35.553Z,95133.00
2023-06-27T07:01:35.552Z,95133.00
2023-06-27T07:02:35.568Z,95125.00
2023-06-27T07:03:35.583Z,95123.00
2023-06-27T07:04:35.616Z,95125.00
2023-06-27T07:05:35.676Z,95125.00
2023-06-27T07:06:35.681Z,95125.00
2023-06-27T07:07:35.750Z,95139.00
2023-06-27T07:08:35.830Z,95139.00
2023-06-27T07:09:35.798Z,95141.00
2023-06-27T07:10:35.817Z,95139.00
2023-06-27T07:11:35.838Z,95139.00
2023-06-27T07:12:35.872Z,95141.00
2023-06-27T07:13:35.883Z,95139.00
2023-06-27T07:14:35.899Z,95137.00
2023-06-27T07:15:35.929Z,95135.00
2023-06-27T07:16:35.952Z,95133.00
2023-06-27T07:17:36.004Z,95133.00
2023-06-27T07:18:35.975Z,95135.00
2023-06-27T07:19:35.988Z,95137.00
2023-06-27T07:20:36.002Z,95137.00
2023-06-27T07:21:36.095Z,95139.00
2023-06-27T07:22:36.058Z,95139.00
2023-06-27T07:23:36.069Z,95137.00
2023-06-27T07:24:36.143Z,95141.00
2023-06-27T07:25:36.116Z,95145.00
2023-06-27T07:26:36.107Z,95141.00
2023-06-27T07:27:36.119Z,95143.00
2023-06-27T07:28:36.146Z,95145.00
2023-06-27T07:29:36.095Z,95147.00
2023-06-27T07:30:36.165Z,95147.00
2023-06-27T07:31:36.209Z,95149.00
2023-06-27T07:32:36.256Z,95149.00
2023-06-27T07:33:36.164Z,95149.00
2023-06-27T07:34:36.163Z,95149.00
2023-06-27T07:35:36.190Z,95143.00
2023-06-27T07:36:36.187Z,95145.00
2023-06-27T07:37:36.205Z,95145.00
2023-06-27T07:38:36.254Z,95143.00
2023-06-27T07:39:36.226Z,95137.00
2023-06-27T07:40:36.280Z,95137.00
2023-06-27T07:41:36.233Z,95133.00
2023-06-27T07:42:36.344Z,95123.00
2023-06-27T07:43:36.250Z,95125.00
2023-06-27T07:44:36.272Z,95121.00
2023-06-27T07:45:36.256Z,95121.00
2023-06-27T07:46:36.279Z,95121.00
2023-06-27T07:47:36.266Z,95119.00
2023-06-27T07:48:36.263Z,95119.00
2023-06-27T07:49:36.253Z,95119.00
2023-06-27T07:50:36.312Z,95117.00
2023-06-27T07:51:36.202Z,95115.00
2023-06-27T07:52:36.404Z,95117.00
2023-06-27T07:53:36.261Z,95119.00
2023-06-27T07:54:36.238Z,95117.00
2023-06-27T07:55:36.275Z,95119.00
2023-06-27T07:56:36.306Z,95119.00
2023-06-27T07:57:36.321Z,95119.00
2023-06-27T07:58:36.344Z,95119.00
2023-06-27T07:59:36.413Z,95117.00
2023-06-27T08:00:36.430Z,95114.00
2023-06-27T08:01:36.481Z,95115.00
2023-06-27T08:02:36.534Z,95114.00
2023-06-27T08:03:36.587Z,95112.00
2023-06-27T08:04:36.490Z,95115.00
2023-06-27T08:05:36.551Z,95115.00
2023-06-27T08:06:36.622Z,95114.00
2023-06-27T08:07:36.715Z,95114.00
2023-06-27T08:08:36.725Z,95114.00
2023-06-27T08:09:37.189Z,95108.00
2023-06-27T08:10:36.870Z,95108.00
2023-06-27T08:11:36.946Z,95106.00
2023-06-27T08:12:37.025Z,95104.00
2023-06-27T08:13:37.037Z,95100.00
2023-06-27T08:14:37.135Z,95102.00
2023-06-27T08:15:37.180Z,95098.00
2023-06-27T08:16:37.226Z,95098.00
2023-06-27T08:17:37.278Z,95098.00
2023-06-27T08:18:37.379Z,95098.00
2023-06-27T08:19:37.386Z,95096.00
2023-06-27T08:20:37.690Z,95096.00
2023-06-27T08:21:37.477Z,95092.00
2023-06-27T08:22:37.551Z,95092.00
2023-06-27T08:23:37.638Z,95094.00
2023-06-27T08:24:37.660Z,95092.00
2023-06-27T08:25:37.932Z,95094.00
2023-06-27T08:26:37.779Z,95092.00
2023-06-27T08:27:37.783Z,95092.00
2023-06-27T08:28:37.857Z,95088.00
2023-06-27T08:29:37.855Z,95092.00
2023-06-27T08:30:37.999Z,95086.00
2023-06-27T08:31:37.905Z,95088.00
2023-06-27T08:32:37.944Z,95084.00
2023-06-27T08:33:37.920Z,95082.00
2023-06-27T08:34:38.004Z,95080.00
2023-06-27T08:35:38.048Z,95080.00
2023-06-27T08:36:38.044Z,95084.00
2023-06-27T08:37:38.124Z,95084.00
2023-06-27T08:38:38.227Z,95086.00
2023-06-27T08:39:38.236Z,95082.00
2023-06-27T08:40:38.928Z,95082.00
2023-06-27T08:41:38.366Z,95080.00
2023-06-27T08:42:38.353Z,95082.00
2023-06-27T08:43:38.360Z,95078.00
2023-06-27T08:44:38.385Z,95078.00
2023-06-27T08:45:38.374Z,95082.00
2023-06-27T08:46:38.430Z,95090.00
2023-06-27T08:47:38.596Z,95088.00
2023-06-27T08:48:38.525Z,95082.00
2023-06-27T08:49:38.543Z,95076.00
2023-06-27T08:50:38.789Z,95078.00
2023-06-27T08:51:39.205Z,95080.00
2023-06-27T08:52:38.741Z,95080.00
2023-06-27T08:53:38.731Z,95082.00
2023-06-27T08:54:38.770Z,95080.00
2023-06-27T08:55:39.267Z,95080.00
2023-06-27T08:56:38.856Z,95084.00
2023-06-27T08:57:38.911Z,95076.00
2023-06-27T08:58:38.931Z,95078.00
2023-06-27T08:59:39.021Z,95080.00
2023-06-27T09:00:39.190Z,95080.00
2023-06-27T09:01:39.081Z,95080.00
2023-06-27T09:02:39.171Z,95076.00
2023-06-27T09:03:39.167Z,95076.00
2023-06-27T09:04:39.113Z,95080.00
2023-06-27T09:05:40.463Z,95080.00
2023-06-27T09:06:39.486Z,95080.00
2023-06-27T09:07:39.111Z,95082.00
2023-06-27T09:08:39.160Z,95082.00
2023-06-27T09:09:39.140Z,95082.00
2023-06-27T09:10:39.408Z,95080.00
2023-06-27T09:11:39.179Z,95084.00
2023-06-27T09:12:39.162Z,95080.00
2023-06-27T09:13:39.199Z,95084.00
2023-06-27T09:14:39.179Z,95080.00
2023-06-27T09:15:39.413Z,95084.00
2023-06-27T09:16:39.667Z,95082.00
2023-06-27T09:17:39.272Z,95082.00
2023-06-27T09:18:39.441Z,95080.00
2023-06-27T09:19:39.338Z,95078.00
2023-06-27T09:20:39.503Z,95076.00
2023-06-27T09:21:39.423Z,95074.00
2023-06-27T09:22:40.806Z,95074.00
2023-06-27T09:23:39.460Z,95078.00
2023-06-27T09:24:39.458Z,95076.00
2023-06-27T09:25:39.650Z,95078.00
2023-06-27T09:26:39.408Z,95080.00
2023-06-27T09:27:39.421Z,95078.00
2023-06-27T09:28:39.373Z,95082.00
2023-06-27T09:29:40.887Z,95078.00
2023-06-27T09:30:39.512Z,95078.00
2023-06-27T09:31:39.509Z,95080.00
2023-06-27T09:32:42.015Z,95078.00
2023-06-27T09:33:43.025Z,95070.00
2023-06-27T09:34:39.629Z,95074.00
2023-06-27T09:36:00.317Z,95076.00
2023-06-27T09:39:39.595Z,95066.00
2023-06-27T09:40:39.568Z,95064.00
2023-06-27T09:41:39.564Z,95066.00
2023-06-27T09:42:39.571Z,95070.00
2023-06-27T09:43:39.992Z,95074.00
2023-06-27T09:44:39.619Z,95068.00
2023-06-27T09:45:39.821Z,95078.00
2023-06-27T09:46:39.523Z,95076.00
2023-06-27T09:47:39.602Z,95082.00
2023-06-27T09:48:39.515Z,95074.00
2023-06-27T09:49:39.513Z,95074.00
2023-06-27T09:50:39.523Z,95066.00
2023-06-27T09:51:39.526Z,95074.00
2023-06-27T09:52:39.558Z,95072.00
2023-06-27T09:53:39.481Z,95070.00
2023-06-27T09:54:39.507Z,95072.00
2023-06-27T09:55:39.674Z,95078.00
2023-06-27T09:56:39.497Z,95082.00
2023-06-27T09:57:39.467Z,95076.00
2023-06-27T09:58:39.473Z,95078.00
2023-06-27T09:59:39.490Z,95078.00
2023-06-27T10:00:39.450Z,95080.00
2023-06-27T10:01:39.424Z,95070.00
2023-06-27T10:02:39.486Z,95068.00
2023-06-27T10:03:39.776Z,95064.00
2023-06-27T10:04:40.751Z,95064.00
2023-06-27T10:06:40.564Z,95068.00
2023-06-27T10:07:39.547Z,95064.00
2023-06-27T10:08:39.403Z,95063.00
2023-06-27T10:09:39.383Z,95063.00
2023-06-27T10:10:39.399Z,95063.00
2023-06-27T10:11:39.413Z,95061.00
2023-06-27T10:12:39.352Z,95061.00
2023-06-27T10:13:39.393Z,95061.00
2023-06-27T10:14:39.381Z,95059.00
2023-06-27T10:15:39.502Z,95063.00
2023-06-27T10:16:39.340Z,95063.00
2023-06-27T10:17:39.395Z,95064.00
2023-06-27T10:18:39.301Z,95061.00
2023-06-27T10:19:39.334Z,95061.00
2023-06-27T10:20:39.314Z,95063.00
2023-06-27T10:21:39.302Z,95061.00
2023-06-27T10:22:39.329Z,95061.00
2023-06-27T10:23:39.276Z,95063.00
2023-06-27T10:24:41.574Z,95063.00
2023-06-27T10:25:39.355Z,95064.00
2023-06-27T10:26:39.327Z,95068.00
2023-06-27T10:27:39.256Z,95070.00
2023-06-27T10:28:39.265Z,95063.00
2023-06-27T10:29:39.523Z,95063.00
2023-06-27T10:30:39.369Z,95064.00
2023-06-27T10:31:39.216Z,95064.00
2023-06-27T10:32:39.276Z,95063.00
2023-06-27T10:33:39.222Z,95063.00
2023-06-27T10:34:39.249Z,95063.00
2023-06-27T10:35:39.195Z,95061.00
2023-06-27T10:36:39.203Z,95063.00
2023-06-27T10:37:39.218Z,95063.00
2023-06-27T10:38:39.233Z,95059.00
2023-06-27T10:39:39.182Z,95057.00
2023-06-27T10:40:39.176Z,95057.00
2023-06-27T10:41:39.282Z,95059.00
2023-06-27T10:42:39.145Z,95055.00
2023-06-27T10:43:39.154Z,95055.00
2023-06-27T10:44:39.182Z,95055.00
2023-06-27T10:45:39.605Z,95057.00
2023-06-27T10:46:39.189Z,95055.00
2023-06-27T10:47:39.132Z,95055.00
2023-06-27T10:48:39.124Z,95053.00
2023-06-27T10:49:39.098Z,95055.00
2023-06-27T10:50:39.162Z,95053.00
2023-06-27T10:51:39.114Z,95053.00
2023-06-27T10:52:39.112Z,95053.00
2023-06-27T10:53:39.115Z,95051.00
2023-06-27T10:54:39.126Z,95053.00
2023-06-27T10:55:39.076Z,95051.00
2023-06-27T10:56:39.088Z,95049.00
2023-06-27T10:57:39.077Z,95047.00
2023-06-27T10:58:39.040Z,95051.00
2023-06-27T10:59:39.054Z,95047.00
2023-06-27T11:00:39.073Z,95047.00
2023-06-27T11:01:39.097Z,95045.00
2023-06-27T11:02:39.138Z,95043.00
2023-06-27T11:03:39.237Z,95041.00
2023-06-27T11:04:39.167Z,95041.00
2023-06-27T11:05:39.038Z,95043.00
2023-06-27T11:06:38.997Z,95041.00
2023-06-27T11:07:39.019Z,95039.00
2023-06-27T11:08:39.019Z,95039.00
2023-06-27T11:09:39.050Z,95039.00
2023-06-27T11:10:39.025Z,95039.00
2023-06-27T11:11:38.989Z,95039.00
2023-06-27T11:12:39.002Z,95037.00
2023-06-27T11:13:38.944Z,95037.00
2023-06-27T11:14:39.063Z,95031.00
2023-06-27T11:15:38.960Z,95029.00
2023-06-27T11:16:39.042Z,95025.00
2023-06-27T11:17:38.958Z,95017.00
2023-06-27T11:18:38.933Z,95017.00
2023-06-27T11:19:39.565Z,95012.00
2023-06-27T11:20:39.257Z,95010.00
2023-06-27T11:21:38.947Z,95006.00
2023-06-27T11:22:38.950Z,95006.00
2023-06-27T11:23:38.971Z,95006.00
2023-06-27T11:24:39.018Z,95002.00
2023-06-27T11:25:39.025Z,95002.00
2023-06-27T11:26:39.028Z,95000.00
2023-06-27T11:27:39.565Z,95002.00
2023-06-27T11:28:39.051Z,95000.00
2023-06-27T11:29:39.051Z,95004.00
2023-06-27T11:30:39.543Z,95000.00
2023-06-27T11:31:39.129Z,94998.00
2023-06-27T11:32:39.153Z,95000.00
2023-06-27T11:33:39.064Z,95002.00
2023-06-27T11:34:39.090Z,95002.00
2023-06-27T11:35:39.183Z,95000.00
2023-06-27T11:36:39.108Z,94998.00
2023-06-27T11:37:39.137Z,95000.00
2023-06-27T11:38:39.120Z,94998.00
2023-06-27T11:39:39.110Z,94998.00
2023-06-27T11:40:39.287Z,94994.00
2023-06-27T11:41:39.087Z,94992.00
2023-06-27T11:42:39.082Z,94988.00
2023-06-27T11:43:39.101Z,94984.00
2023-06-27T11:44:39.070Z,94980.00
2023-06-27T11:45:39.162Z,94980.00
2023-06-27T11:46:39.124Z,94978.00
2023-06-27T11:47:39.150Z,94976.00
2023-06-27T11:48:39.108Z,94982.00